createdAt,value
2024-02-19T00:00:39.018Z,5.75
2024-02-19T00:03:28.409Z,5.74
2024-02-19T00:05:57.303Z,5.74
2024-02-19T00:08:25.176Z,5.74
2024-02-19T00:10:53.102Z,5.73
2024-02-19T00:13:21.549Z,5.73
2024-02-19T00:15:49.772Z,5.71
2024-02-19T00:18:19.675Z,5.73
2024-02-19T00:20:48.074Z,5.73
2024-02-19T00:23:16.033Z,5.72
2024-02-19T00:25:43.934Z,5.70
2024-02-19T00:28:12.627Z,5.70
2024-02-19T00:30:41.043Z,5.70
2024-02-19T00:33:09.785Z,5.69
2024-02-19T00:35:37.948Z,5.68
2024-02-19T00:38:06.107Z,5.67
2024-02-19T00:40:34.296Z,5.64
2024-02-19T00:43:02.267Z,5.64
2024-02-19T00:45:30.366Z,5.63
2024-02-19T00:47:58.877Z,5.64
2024-02-19T00:50:27.143Z,5.60
2024-02-19T00:52:55.056Z,5.64
2024-02-19T00:55:23.242Z,5.66
2024-02-19T00:57:51.398Z,5.66
2024-02-19T01:00:19.560Z,5.65
2024-02-19T01:02:47.555Z,5.68
2024-02-19T01:05:16.281Z,5.69
2024-02-19T01:07:44.235Z,5.69
2024-02-19T01:10:12.599Z,5.70
2024-02-19T01:12:40.678Z,5.71
2024-02-19T01:15:09.224Z,5.72
2024-02-19T01:17:37.101Z,5.73
2024-02-19T01:20:07.183Z,5.74
2024-02-19T01:22:35.226Z,5.75
2024-02-19T01:25:03.762Z,5.77
2024-02-19T01:27:31.865Z,5.78
2024-02-19T01:29:59.898Z,5.79
2024-02-19T01:32:28.308Z,5.81
2024-02-19T01:34:56.809Z,5.82
2024-02-19T01:37:25.287Z,5.82
2024-02-19T01:39:54.312Z,5.84
2024-02-19T01:42:24.977Z,5.84
2024-02-19T01:44:52.918Z,5.86
2024-02-19T01:47:21.039Z,5.87
2024-02-19T01:49:49.131Z,5.88
2024-02-19T01:52:18.005Z,5.90
2024-02-19T01:54:49.155Z,5.91
2024-02-19T01:57:17.824Z,5.92
2024-02-19T01:59:45.903Z,5.93
2024-02-19T02:02:14.061Z,5.94
2024-02-19T02:04:43.438Z,5.96
2024-02-19T02:07:11.511Z,5.98
2024-02-19T02:09:39.947Z,5.99
2024-02-19T02:12:08.623Z,6.01
2024-02-19T02:14:44.467Z,6.03
2024-02-19T02:17:12.370Z,6.04
2024-02-19T02:19:45.252Z,6.05
2024-02-19T02:22:14.768Z,6.06
2024-02-19T02:24:42.966Z,6.07
2024-02-19T02:27:11.391Z,6.09
2024-02-19T02:29:40.552Z,6.10
2024-02-19T02:32:08.760Z,6.11
2024-02-19T02:34:36.806Z,6.10
2024-02-19T02:37:04.905Z,6.13
2024-02-19T02:39:33.178Z,6.14
2024-02-19T02:42:01.139Z,6.15
2024-02-19T02:44:29.106Z,6.16
2024-02-19T02:46:57.053Z,6.18
2024-02-19T02:49:25.035Z,6.18
2024-02-19T02:51:53.517Z,6.19
2024-02-19T02:54:21.621Z,6.20
2024-02-19T02:56:49.786Z,6.21
2024-02-19T02:59:17.920Z,6.22
2024-02-19T03:01:49.481Z,6.22
2024-02-19T03:04:17.947Z,6.22
2024-02-19T03:06:46.365Z,6.21
2024-02-19T03:09:14.332Z,6.21
2024-02-19T03:11:42.353Z,6.21
2024-02-19T03:14:15.181Z,6.21
2024-02-19T03:16:43.801Z,6.21
2024-02-19T03:19:14.814Z,6.20
2024-02-19T03:21:42.902Z,6.18
2024-02-19T03:24:10.868Z,6.19
2024-02-19T03:26:41.582Z,6.18
2024-02-19T03:29:14.333Z,6.17
2024-02-19T03:31:44.425Z,6.16
2024-02-19T03:34:12.761Z,6.14
2024-02-19T03:36:48.060Z,6.13
2024-02-19T03:39:16.050Z,6.13
2024-02-19T03:41:44.108Z,6.12
2024-02-19T03:44:12.554Z,6.11
2024-02-19T03:46:40.798Z,6.11
2024-02-19T03:49:09.123Z,6.11
2024-02-19T03:51:37.241Z,6.11
2024-02-19T03:54:05.247Z,6.10
2024-02-19T03:56:33.241Z,6.10
2024-02-19T03:59:01.255Z,6.11
2024-02-19T04:01:29.525Z,6.11
2024-02-19T04:03:57.613Z,6.11
2024-02-19T04:06:25.870Z,6.11
2024-02-19T04:08:53.809Z,6.12
2024-02-19T04:11:21.889Z,6.11
2024-02-19T04:13:49.820Z,6.11
2024-02-19T04:16:17.866Z,6.11
2024-02-19T04:18:46.284Z,6.11
2024-02-19T04:21:14.406Z,6.11
2024-02-19T04:23:42.320Z,6.10
2024-02-19T04:26:10.358Z,6.10
2024-02-19T04:28:38.821Z,6.11
2024-02-19T04:31:06.906Z,6.11
2024-02-19T04:33:34.920Z,6.10
2024-02-19T04:36:03.085Z,6.13
2024-02-19T04:38:31.130Z,6.13
2024-02-19T04:40:58.955Z,6.15
2024-02-19T04:43:26.837Z,6.15
2024-02-19T04:45:54.869Z,6.16
2024-02-19T04:48:22.975Z,6.17
2024-02-19T04:50:51.290Z,6.16
2024-02-19T04:53:20.008Z,6.19
2024-02-19T04:55:48.170Z,6.19
2024-02-19T04:58:17.731Z,6.20
2024-02-19T05:00:47.075Z,6.23
2024-02-19T05:03:18.143Z,6.24
2024-02-19T05:05:47.328Z,6.25
2024-02-19T05:08:15.313Z,6.25
2024-02-19T05:10:43.215Z,6.28
2024-02-19T05:13:11.474Z,6.28
2024-02-19T05:15:39.479Z,6.29
2024-02-19T05:18:07.736Z,6.30
2024-02-19T05:20:38.786Z,6.31
2024-02-19T05:23:06.662Z,6.32
2024-02-19T05:25:34.547Z,6.33
2024-02-19T05:28:02.885Z,6.33
2024-02-19T05:30:31.506Z,6.35
2024-02-19T05:32:59.494Z,6.34
2024-02-19T05:35:27.748Z,6.35
2024-02-19T05:37:56.957Z,6.37
2024-02-19T05:40:24.962Z,6.37
2024-02-19T05:42:53.426Z,6.39
2024-02-19T05:45:21.404Z,6.40
2024-02-19T05:47:52.305Z,6.41
2024-02-19T05:50:20.411Z,6.41
2024-02-19T05:52:48.365Z,6.42
2024-02-19T05:55:16.403Z,6.42
2024-02-19T05:57:44.371Z,6.43
2024-02-19T06:00:15.362Z,6.44
2024-02-19T06:02:44.326Z,6.45
2024-02-19T06:05:12.781Z,6.44
2024-02-19T06:07:40.799Z,6.44
2024-02-19T06:10:09.177Z,6.45
2024-02-19T06:12:37.178Z,6.45
2024-02-19T06:15:05.736Z,6.46
2024-02-19T06:17:34.166Z,6.46
2024-02-19T06:20:02.729Z,6.46
2024-02-19T06:22:30.990Z,6.47
2024-02-19T06:24:59.155Z,6.47
2024-02-19T06:27:29.769Z,6.48
2024-02-19T06:29:57.637Z,6.50
2024-02-19T06:32:25.553Z,6.51
2024-02-19T06:34:53.531Z,6.52
2024-02-19T06:37:21.585Z,6.53
2024-02-19T06:39:49.562Z,6.54
2024-02-19T06:42:19.303Z,6.55
2024-02-19T06:44:47.191Z,6.57
2024-02-19T06:47:15.158Z,6.57
2024-02-19T06:49:43.167Z,6.58
2024-02-19T06:52:11.284Z,6.60
2024-02-19T06:54:39.167Z,6.62
2024-02-19T06:57:07.115Z,6.64
2024-02-19T06:59:34.961Z,6.67
2024-02-19T07:02:06.949Z,6.69
2024-02-19T07:04:38.652Z,6.71
2024-02-19T07:07:10.585Z,6.73
2024-02-19T07:09:39.796Z,6.75
2024-02-19T07:12:08.648Z,6.75
2024-02-19T07:14:36.819Z,6.77
2024-02-19T07:17:05.028Z,6.79
2024-02-19T07:19:33.055Z,6.81
2024-02-19T07:22:01.137Z,6.83
2024-02-19T07:24:29.895Z,6.83
2024-02-19T07:26:58.822Z,6.85
2024-02-19T07:29:27.783Z,6.87
2024-02-19T07:31:55.868Z,6.89
2024-02-19T07:34:24.534Z,6.90
2024-02-19T07:36:54.222Z,6.92
2024-02-19T07:39:22.388Z,6.93
2024-02-19T07:41:50.271Z,6.95
2024-02-19T07:44:18.109Z,6.96
2024-02-19T07:46:46.215Z,6.97
2024-02-19T07:49:14.433Z,7.00
2024-02-19T07:51:42.677Z,7.01
2024-02-19T07:54:10.857Z,7.04
2024-02-19T07:56:38.940Z,7.05
2024-02-19T07:59:07.145Z,7.07
2024-02-19T08:01:35.296Z,7.09
2024-02-19T08:04:06.226Z,7.11
2024-02-19T08:06:34.476Z,7.13
2024-02-19T08:09:05.928Z,7.15
2024-02-19T08:11:34.008Z,7.17
2024-02-19T08:14:02.218Z,7.19
2024-02-19T08:16:30.420Z,7.22
2024-02-19T08:18:58.670Z,7.23
2024-02-19T08:21:27.927Z,7.25
2024-02-19T08:23:55.995Z,7.29
2024-02-19T08:26:23.829Z,7.33
2024-02-19T08:28:52.012Z,7.39
2024-02-19T08:31:20.068Z,7.46
2024-02-19T08:33:48.080Z,7.49
2024-02-19T08:36:16.082Z,7.52
2024-02-19T08:38:46.251Z,7.55
2024-02-19T08:41:14.906Z,7.58
2024-02-19T08:43:42.908Z,7.62
2024-02-19T08:46:10.877Z,7.65
2024-02-19T08:48:39.128Z,7.68
2024-02-19T08:51:07.352Z,7.71
2024-02-19T08:53:36.092Z,7.75
2024-02-19T08:56:04.214Z,7.76
2024-02-19T08:58:32.705Z,7.79
2024-02-19T09:01:01.191Z,7.82
2024-02-19T09:03:29.213Z,7.86
2024-02-19T09:05:57.311Z,7.90
2024-02-19T09:08:25.564Z,7.94
2024-02-19T09:10:55.110Z,7.99
2024-02-19T09:13:23.125Z,8.03
2024-02-19T09:15:51.411Z,8.06
2024-02-19T09:18:19.479Z,8.08
2024-02-19T09:20:47.443Z,8.09
2024-02-19T09:23:17.935Z,8.09
2024-02-19T09:25:45.965Z,8.08
2024-02-19T09:28:13.936Z,8.08
2024-02-19T09:30:42.071Z,8.09
2024-02-19T09:33:10.370Z,8.07
2024-02-19T09:35:38.533Z,8.06
2024-02-19T09:38:06.925Z,8.05
2024-02-19T09:40:37.689Z,8.04
2024-02-19T09:43:07.242Z,8.03
2024-02-19T09:45:37.641Z,8.01
2024-02-19T09:48:07.486Z,8.00
2024-02-19T09:50:36.144Z,7.97
2024-02-19T09:53:14.913Z,7.93
2024-02-19T09:55:42.827Z,7.89
2024-02-19T09:58:11.129Z,7.85
2024-02-19T10:00:39.266Z,7.82
2024-02-19T10:03:08.752Z,7.81
2024-02-19T10:05:36.757Z,7.80
2024-02-19T10:08:10.466Z,7.77
2024-02-19T10:10:39.710Z,7.73
2024-02-19T10:13:11.352Z,7.72
2024-02-19T10:15:40.046Z,7.71
2024-02-19T10:18:21.797Z,7.71
2024-02-19T10:20:52.187Z,7.69
2024-02-19T10:23:23.996Z,7.69
2024-02-19T10:25:53.167Z,7.69
2024-02-19T10:28:25.546Z,7.68
2024-02-19T10:30:53.635Z,7.68
2024-02-19T10:33:22.877Z,7.69
2024-02-19T10:35:51.260Z,7.70
2024-02-19T10:38:19.419Z,7.70
2024-02-19T10:40:47.433Z,7.72
2024-02-19T10:43:15.839Z,7.72
2024-02-19T10:45:44.046Z,7.71
2024-02-19T10:48:12.308Z,7.70
2024-02-19T10:50:42.332Z,7.69
2024-02-19T10:53:11.945Z,7.68
2024-02-19T10:55:49.932Z,7.68
2024-02-19T10:58:26.878Z,7.70
2024-02-19T11:04:33.929Z,7.72
2024-02-19T11:07:02.478Z,7.72
2024-02-19T11:09:59.714Z,7.73
2024-02-19T11:12:27.896Z,7.74
2024-02-19T11:14:56.414Z,7.73
2024-02-19T11:17:25.042Z,7.73
2024-02-19T11:19:56.643Z,7.74
2024-02-19T11:22:31.641Z,7.74
2024-02-19T11:24:59.720Z,7.75
2024-02-19T11:27:27.816Z,7.77
2024-02-19T11:30:01.500Z,7.78
2024-02-19T11:32:29.770Z,7.79
2024-02-19T11:34:57.677Z,7.79
2024-02-19T11:37:25.810Z,7.78
2024-02-19T11:39:53.865Z,7.78
2024-02-19T11:42:23.322Z,7.77
2024-02-19T11:44:51.416Z,7.76
2024-02-19T11:47:19.606Z,7.75
2024-02-19T11:49:48.771Z,7.74
2024-02-19T11:52:17.270Z,7.73
2024-02-19T11:54:45.618Z,7.72
2024-02-19T11:57:15.536Z,7.72
2024-02-19T11:59:46.138Z,7.71
2024-02-19T12:02:14.272Z,7.70
2024-02-19T12:04:42.443Z,7.71
2024-02-19T12:07:11.659Z,7.71
2024-02-19T12:09:41.024Z,7.71
2024-02-19T12:12:09.698Z,7.72
2024-02-19T12:14:37.844Z,7.74
2024-02-19T12:17:07.194Z,7.74
2024-02-19T12:19:36.636Z,7.74
2024-02-19T12:52:34.098Z,7.37
2024-02-19T12:55:02.084Z,7.35
2024-02-19T12:57:30.187Z,7.33
2024-02-19T12:59:58.841Z,7.32
2024-02-19T13:02:27.251Z,7.29
2024-02-19T13:04:55.384Z,7.27
2024-02-19T13:07:24.015Z,7.25
2024-02-19T13:09:51.993Z,7.24
2024-02-19T13:12:20.858Z,7.22
2024-02-19T13:14:49.097Z,7.20
2024-02-19T13:17:23.166Z,7.15
2024-02-19T13:19:58.322Z,7.13
2024-02-19T13:22:28.027Z,7.11
2024-02-19T13:24:55.964Z,7.09
2024-02-19T13:27:24.050Z,7.08
2024-02-19T13:29:51.881Z,7.06
2024-02-19T13:32:19.776Z,7.04
2024-02-19T13:34:48.509Z,7.03
2024-02-19T13:37:19.627Z,7.03
2024-02-19T13:39:47.841Z,7.01
2024-02-19T13:42:16.217Z,7.00
2024-02-19T13:44:44.225Z,7.01
2024-02-19T13:47:12.410Z,7.01
2024-02-19T13:49:40.478Z,7.02
2024-02-19T13:52:09.283Z,7.02
2024-02-19T13:54:37.505Z,7.03
2024-02-19T13:57:05.877Z,7.05
2024-02-19T13:59:33.906Z,7.08
2024-02-19T14:02:01.902Z,7.09
2024-02-19T14:04:30.554Z,7.10
2024-02-19T14:06:58.887Z,7.11
2024-02-19T14:09:27.064Z,7.11
2024-02-19T14:11:55.128Z,7.10
2024-02-19T14:14:23.308Z,7.08
2024-02-19T14:16:51.393Z,7.06
2024-02-19T14:19:20.005Z,7.04
2024-02-19T14:21:48.989Z,7.02
2024-02-19T14:24:17.941Z,7.01
2024-02-19T14:26:46.449Z,7.00
2024-02-19T14:29:14.789Z,6.98
2024-02-19T14:31:42.795Z,6.98
2024-02-19T14:34:11.843Z,6.97
2024-02-19T14:36:40.760Z,6.96
2024-02-19T14:39:11.113Z,6.95
2024-02-19T14:41:39.379Z,6.92
2024-02-19T14:44:07.427Z,6.90
2024-02-19T14:46:37.464Z,6.90
2024-02-19T14:49:07.856Z,6.88
2024-02-19T14:51:36.345Z,6.89
2024-02-19T14:54:05.446Z,6.88
2024-02-19T14:56:33.731Z,6.88
2024-02-19T14:59:02.557Z,6.87
2024-02-19T15:01:30.556Z,6.89
2024-02-19T15:03:58.796Z,6.90
2024-02-19T15:06:27.062Z,6.90
2024-02-19T15:08:55.085Z,6.92
2024-02-19T15:11:23.373Z,6.94
2024-02-19T15:13:51.286Z,6.95
2024-02-19T15:16:19.580Z,6.96
2024-02-19T15:18:48.317Z,6.98
2024-02-19T15:21:16.472Z,6.99
2024-02-19T15:23:44.424Z,6.99
2024-02-19T15:26:12.652Z,6.99
2024-02-19T15:28:40.669Z,7.00
2024-02-19T15:31:08.928Z,7.00
2024-02-19T15:33:36.987Z,7.00
2024-02-19T15:36:05.282Z,7.00
2024-02-19T15:38:33.493Z,7.00
2024-02-19T15:41:04.343Z,6.99
2024-02-19T15:43:32.425Z,6.99
2024-02-19T15:46:01.162Z,6.99
2024-02-19T15:48:29.203Z,7.00
2024-02-19T15:50:58.777Z,7.00
2024-02-19T15:53:30.073Z,7.01
2024-02-19T15:56:01.375Z,7.00
2024-02-19T15:58:30.359Z,7.01
2024-02-19T16:00:58.802Z,7.01
2024-02-19T16:03:29.590Z,7.01
2024-02-19T16:06:02.539Z,7.02
2024-02-19T16:08:33.682Z,7.02
2024-02-19T16:11:05.269Z,7.02
2024-02-19T16:13:37.707Z,7.02
2024-02-19T16:16:12.184Z,7.02
2024-02-19T16:18:41.312Z,7.03
2024-02-19T16:21:09.663Z,7.04
2024-02-19T16:23:38.475Z,7.04
2024-02-19T16:26:09.090Z,7.05
2024-02-19T16:28:40.280Z,7.05
2024-02-19T16:31:10.715Z,7.05
2024-02-19T16:33:40.545Z,7.05
2024-02-19T16:36:09.409Z,7.07
2024-02-19T16:38:42.583Z,7.07
2024-02-19T16:41:11.306Z,7.08
2024-02-19T16:43:39.449Z,7.07
2024-02-19T16:46:10.219Z,7.07
2024-02-19T16:48:40.493Z,7.06
2024-02-19T16:51:13.191Z,7.05
2024-02-19T16:53:42.305Z,7.05
2024-02-19T16:56:12.310Z,7.05
2024-02-19T16:58:40.772Z,7.05
2024-02-19T17:01:11.414Z,7.06
2024-02-19T17:03:40.995Z,7.06
2024-02-19T17:06:09.581Z,7.07
2024-02-19T17:08:38.304Z,7.06
2024-02-19T17:11:06.789Z,7.08
2024-02-19T17:13:38.115Z,7.08
2024-02-19T17:16:06.838Z,7.09
2024-02-19T17:18:35.245Z,7.10
2024-02-19T17:21:05.319Z,7.10
2024-02-19T17:23:33.708Z,7.11
2024-02-19T17:26:02.274Z,7.10
2024-02-19T17:28:30.269Z,7.10
2024-02-19T17:30:58.598Z,7.10
2024-02-19T17:33:26.668Z,7.10
2024-02-19T17:35:54.767Z,7.10
2024-02-19T17:38:22.908Z,7.09
2024-02-19T17:40:51.281Z,7.10
2024-02-19T17:43:19.566Z,7.09
2024-02-19T17:45:47.835Z,7.08
2024-02-19T17:48:16.179Z,7.08
2024-02-19T17:50:47.492Z,7.09
2024-02-19T17:53:15.460Z,7.09
2024-02-19T17:55:44.009Z,7.09
2024-02-19T17:58:13.800Z,7.09
2024-02-19T18:00:43.193Z,7.08
2024-02-19T18:03:11.500Z,7.07
2024-02-19T18:05:39.890Z,7.07
2024-02-19T18:08:08.386Z,7.07
2024-02-19T18:10:36.656Z,7.07
2024-02-19T18:13:06.054Z,7.06
2024-02-19T18:15:34.696Z,7.04
2024-02-19T18:18:04.728Z,7.03
2024-02-19T18:20:34.440Z,7.02
2024-02-19T18:23:06.185Z,7.02
2024-02-19T18:25:34.695Z,7.02
2024-02-19T18:28:03.474Z,7.03
2024-02-19T18:30:31.854Z,7.03
2024-02-19T18:33:02.442Z,7.01
2024-02-19T18:35:35.393Z,7.01
2024-02-19T18:38:05.511Z,7.01
2024-02-19T18:40:33.486Z,7.00
2024-02-19T18:43:01.953Z,7.00
2024-02-19T18:45:30.031Z,7.01
2024-02-19T18:47:57.990Z,7.01
2024-02-19T18:50:25.966Z,7.01
2024-02-19T18:52:53.846Z,7.01
2024-02-19T18:55:25.739Z,6.99
2024-02-19T18:57:53.820Z,7.01
2024-02-19T19:00:22.193Z,7.02
2024-02-19T19:02:50.101Z,7.03
2024-02-19T19:05:18.306Z,7.05
2024-02-19T19:07:46.315Z,7.06
2024-02-19T19:10:14.372Z,7.07
2024-02-19T19:12:42.700Z,7.08
2024-02-19T19:15:10.980Z,7.10
2024-02-19T19:17:38.955Z,7.11
2024-02-19T19:20:10.937Z,7.11
2024-02-19T19:22:39.501Z,7.12
2024-02-19T19:25:08.393Z,7.11
2024-02-19T19:27:36.415Z,7.11
2024-02-19T19:30:05.961Z,7.12
2024-02-19T19:32:36.285Z,7.12
2024-02-19T19:35:05.409Z,7.11
2024-02-19T19:37:33.631Z,7.11
2024-02-19T19:40:05.451Z,7.10
2024-02-19T19:42:34.006Z,7.11
2024-02-19T19:45:02.462Z,7.11
2024-02-19T19:47:32.712Z,7.10
2024-02-19T19:50:02.358Z,7.10
2024-02-19T19:52:35.335Z,7.10
2024-02-19T19:55:03.939Z,7.11
2024-02-19T19:57:32.935Z,7.10
2024-02-19T20:00:01.252Z,7.11
2024-02-19T20:02:29.628Z,7.10
2024-02-19T20:04:57.754Z,7.09
2024-02-19T20:07:27.205Z,7.08
2024-02-19T20:09:55.836Z,7.08
2024-02-19T20:12:23.996Z,7.08
2024-02-19T20:14:54.012Z,7.08
2024-02-19T20:17:25.187Z,7.08
2024-02-19T20:19:53.638Z,7.08
2024-02-19T20:22:21.967Z,7.08
2024-02-19T20:24:50.238Z,7.07
2024-02-19T20:27:18.611Z,7.08
2024-02-19T20:29:46.686Z,7.08
2024-02-19T20:32:15.739Z,7.08
2024-02-19T20:34:46.256Z,7.08
2024-02-19T20:37:16.290Z,7.08
2024-02-19T20:39:46.429Z,7.08
2024-02-19T20:42:16.339Z,7.08
2024-02-19T20:44:46.998Z,7.07
2024-02-19T20:47:15.143Z,7.07
2024-02-19T20:49:45.926Z,7.06
2024-02-19T20:52:14.845Z,7.07
2024-02-19T20:54:42.887Z,7.05
2024-02-19T20:57:10.825Z,7.06
2024-02-19T20:59:39.598Z,7.05
2024-02-19T21:02:09.233Z,7.04
2024-02-19T21:04:38.234Z,7.03
2024-02-19T21:07:06.350Z,7.02
2024-02-19T21:09:36.484Z,7.01
2024-02-19T21:12:04.791Z,7.00
2024-02-19T21:14:33.013Z,7.01
2024-02-19T21:17:01.279Z,7.00
2024-02-19T21:19:29.223Z,7.00
2024-02-19T21:21:57.344Z,7.00
2024-02-19T21:24:25.437Z,7.00
2024-02-19T21:26:55.639Z,7.00
2024-02-19T21:29:27.625Z,7.00
2024-02-19T21:31:59.246Z,7.00
2024-02-19T21:34:27.305Z,7.00
2024-02-19T21:36:57.972Z,7.02
2024-02-19T21:39:26.807Z,7.02
2024-02-19T21:41:54.995Z,7.03
2024-02-19T21:44:25.042Z,7.03
2024-02-19T21:46:53.977Z,7.04
2024-02-19T21:49:22.132Z,7.03
2024-02-19T21:51:50.323Z,7.05
2024-02-19T21:54:18.607Z,7.05
2024-02-19T21:56:46.645Z,7.05
2024-02-19T21:59:15.312Z,7.05
2024-02-19T22:01:43.403Z,7.07
2024-02-19T22:04:11.626Z,7.07
2024-02-19T22:06:41.727Z,7.07
2024-02-19T22:09:09.804Z,7.08
2024-02-19T22:11:38.212Z,7.08
2024-02-19T22:14:06.537Z,7.08
2024-02-19T22:16:34.965Z,7.09
2024-02-19T22:19:03.002Z,7.09
2024-02-19T22:21:32.127Z,7.10
2024-02-19T22:24:01.563Z,7.10
2024-02-19T22:26:29.857Z,7.10
2024-02-19T22:28:58.371Z,7.10
2024-02-19T22:31:26.943Z,7.10
2024-02-19T22:33:55.460Z,7.10
2024-02-19T22:36:23.737Z,7.11
2024-02-19T22:38:52.059Z,7.11
2024-02-19T22:41:20.351Z,7.10
2024-02-19T22:43:48.593Z,7.09
2024-02-19T22:46:16.811Z,7.08
2024-02-19T22:48:44.973Z,7.08
2024-02-19T22:51:13.110Z,7.07
2024-02-19T22:53:41.277Z,7.05
2024-02-19T22:56:10.093Z,7.05
2024-02-19T22:58:38.615Z,7.04
2024-02-19T23:01:06.976Z,7.03
2024-02-19T23:03:36.088Z,7.02
2024-02-19T23:06:04.862Z,7.02
2024-02-19T23:08:33.155Z,7.02
2024-02-19T23:11:01.119Z,7.01
2024-02-19T23:13:29.041Z,7.02
2024-02-19T23:15:57.708Z,7.02
2024-02-19T23:18:27.312Z,7.02
2024-02-19T23:20:55.327Z,7.01
2024-02-19T23:23:23.387Z,7.00
2024-02-19T23:25:54.407Z,6.99
2024-02-19T23:28:25.777Z,7.00
2024-02-19T23:30:54.266Z,7.00
2024-02-19T23:33:22.353Z,7.00
2024-02-19T23:35:50.285Z,7.01
2024-02-19T23:38:24.705Z,7.01
2024-02-19T23:40:52.951Z,7.01
2024-02-19T23:43:20.946Z,7.01
2024-02-19T23:45:49.620Z,7.02
2024-02-19T23:48:18.108Z,7.02
2024-02-19T23:50:46.125Z,7.03
2024-02-19T23:53:16.541Z,7.03
2024-02-19T23:55:45.122Z,7.04
2024-02-19T23:58:13.666Z,7.04
